Time;durP1;ratioP1;P1;durP2;ratioP2;P2;SDS_P1;SDS_P2;PMS_P1;PMS_P2;Temp;Humidity;BMP_temperature;BMP_pressure;BME280_temperature;BME280_humidity;BME280_pressure;Samples;Min_cycle;Max_cycle;Signal;HPM_P1;HPM_P2
2022/06/05 00:01:21;;;;;;;7.80;7.30;;;19.70;99.90;;;;;;6064382;23;21007;-87
2022/06/05 00:03:56;;;;;;;6.53;6.10;;;19.70;99.90;;;;;;6063265;23;20506;-88
2022/06/05 00:06:29;;;;;;;7.53;7.03;;;19.70;99.90;;;;;;6064265;23;20429;-87
2022/06/05 00:09:21;;;;;;;8.07;7.57;;;19.80;99.90;;;;;;6067210;23;20486;-87
2022/06/05 00:11:54;;;;;;;8.10;7.50;;;19.80;99.90;;;;;;6067061;23;20498;-88
2022/06/05 00:14:22;;;;;;;8.63;7.93;;;19.80;99.90;;;;;;6064100;23;20475;-87
2022/06/05 00:16:48;;;;;;;8.77;8.17;;;19.80;99.90;;;;;;6072271;23;20431;-87
2022/06/05 00:19:17;;;;;;;9.50;8.80;;;19.80;99.90;;;;;;6091070;23;20454;-87
2022/06/05 00:21:44;;;;;;;8.60;8.10;;;19.70;99.90;;;;;;6067131;23;20412;-86
2022/06/05 00:24:11;;;;;;;9.50;8.80;;;19.60;99.90;;;;;;6089994;23;20434;-87
2022/06/05 00:26:46;;;;;;;8.33;7.77;;;19.70;99.90;;;;;;6091014;23;20436;-87
2022/06/05 00:29:24;;;;;;;7.90;7.40;;;19.70;99.90;;;;;;6073033;23;20534;-88
2022/06/05 00:31:57;;;;;;;7.70;7.20;;;19.70;99.90;;;;;;6063869;23;20980;-88
2022/06/05 00:34:26;;;;;;;8.60;8.00;;;19.70;99.90;;;;;;6063782;23;20522;-88
2022/06/05 00:37:07;;;;;;;8.30;7.70;;;19.70;99.90;;;;;;6063577;23;20436;-88
2022/06/05 00:39:43;;;;;;;8.73;8.07;;;19.60;99.90;;;;;;6063723;23;20562;-87
2022/06/05 00:42:12;;;;;;;8.23;7.73;;;19.60;99.90;;;;;;6063944;23;21032;-88
2022/06/05 00:44:42;;;;;;;9.77;9.07;;;19.60;99.90;;;;;;6064156;23;20811;-87
2022/06/05 00:47:13;;;;;;;8.83;8.23;;;19.60;99.90;;;;;;6063390;23;20471;-87
2022/06/05 00:49:49;;;;;;;8.43;7.83;;;19.60;99.90;;;;;;6063538;23;20542;-87
2022/06/05 00:52:17;;;;;;;8.10;7.50;;;19.50;99.90;;;;;;6064333;23;20435;-87
2022/06/05 00:54:44;;;;;;;8.87;8.27;;;19.50;99.90;;;;;;6064162;23;20855;-87
2022/06/05 00:57:13;;;;;;;8.63;8.03;;;19.50;99.90;;;;;;6063954;23;20494;-87
2022/06/05 00:59:43;;;;;;;8.00;7.50;;;19.50;99.90;;;;;;6063500;23;20459;-88
2022/06/05 01:02:11;;;;;;;9.13;8.43;;;19.50;99.90;;;;;;6064019;23;20869;-88
2022/06/05 01:04:41;;;;;;;8.70;8.10;;;19.50;99.90;;;;;;6063663;23;20522;-87
2022/06/05 01:07:10;;;;;;;8.47;7.90;;;19.50;99.90;;;;;;6064133;23;20443;-88
2022/06/05 01:09:38;;;;;;;8.80;8.10;;;19.50;99.90;;;;;;6064004;23;20533;-88
2022/06/05 01:12:14;;;;;;;8.20;7.70;;;19.50;99.90;;;;;;6063685;23;20475;-87
2022/06/05 01:14:51;;;;;;;11.40;10.60;;;19.50;99.90;;;;;;6064000;23;20479;-88
2022/06/05 01:17:26;;;;;;;13.77;12.67;;;19.50;99.90;;;;;;6064930;23;20458;-88
2022/06/05 01:20:03;;;;;;;14.87;13.67;;;19.60;99.90;;;;;;6065014;23;20537;-88
2022/06/05 01:22:52;;;;;;;11.40;10.60;;;19.50;99.90;;;;;;6065149;23;20989;-87
2022/06/05 01:25:43;;;;;;;9.80;9.07;;;19.50;99.90;;;;;;6065010;23;20435;-87
2022/06/05 01:28:15;;;;;;;9.50;8.87;;;19.40;99.90;;;;;;6065863;23;20851;-87
2022/06/05 01:30:48;;;;;;;9.90;9.20;;;19.30;99.90;;;;;;6064193;23;20982;-87
2022/06/05 01:33:20;;;;;;;10.70;10.00;;;19.20;99.90;;;;;;6064863;23;20435;-88
2022/06/05 01:35:58;;;;;;;10.47;9.77;;;19.20;99.90;;;;;;6064991;23;20436;-88
2022/06/05 01:38:31;;;;;;;10.77;9.97;;;19.10;99.90;;;;;;6065133;23;20474;-88
2022/06/05 01:41:09;;;;;;;10.13;9.43;;;19.10;99.90;;;;;;6067517;23;20431;-87
2022/06/05 01:43:40;;;;;;;9.73;9.03;;;19.00;99.90;;;;;;6071160;23;20427;-88
2022/06/05 01:46:13;;;;;;;9.97;9.27;;;19.10;99.90;;;;;;6065312;23;20483;-87
2022/06/05 01:48:43;;;;;;;11.53;10.70;;;19.10;99.90;;;;;;6065074;23;20495;-87
2022/06/05 01:51:17;;;;;;;10.30;9.60;;;19.00;99.90;;;;;;6064867;23;20509;-87
2022/06/05 01:53:47;;;;;;;10.73;9.90;;;19.10;99.90;;;;;;6065180;23;20424;-88
2022/06/05 01:56:22;;;;;;;9.00;8.40;;;19.10;99.90;;;;;;6064886;23;20427;-87
2022/06/05 01:58:52;;;;;;;9.70;9.10;;;19.20;99.90;;;;;;6064530;23;20478;-88
2022/06/05 02:01:23;;;;;;;10.40;9.63;;;19.20;99.90;;;;;;6065908;23;20518;-87
2022/06/05 02:03:56;;;;;;;9.93;9.23;;;19.30;99.90;;;;;;6066738;23;20510;-87
2022/06/05 02:06:30;;;;;;;9.70;9.10;;;19.30;99.90;;;;;;6070994;23;20467;-87
2022/06/05 02:09:02;;;;;;;10.37;9.60;;;19.30;99.90;;;;;;6071004;23;20473;-88
2022/06/05 02:11:33;;;;;;;10.20;9.50;;;19.30;99.90;;;;;;6069895;23;20455;-88
2022/06/05 02:14:02;;;;;;;9.77;9.17;;;19.40;99.90;;;;;;6070055;23;20447;-87
2022/06/05 02:16:31;;;;;;;10.30;9.70;;;19.40;99.90;;;;;;6074992;23;20435;-88
2022/06/05 02:19:00;;;;;;;10.10;9.50;;;19.40;99.90;;;;;;6073252;23;20506;-88
2022/06/05 02:21:27;;;;;;;10.27;9.47;;;19.40;99.90;;;;;;6074085;23;20497;-87
2022/06/05 02:23:54;;;;;;;10.23;9.43;;;19.40;99.90;;;;;;6077384;23;20469;-87
2022/06/05 02:26:21;;;;;;;11.40;10.60;;;19.40;99.90;;;;;;6074139;23;20462;-87
2022/06/05 02:28:49;;;;;;;9.87;9.27;;;19.40;99.90;;;;;;6064330;23;20534;-88
2022/06/05 02:31:31;;;;;;;11.17;10.40;;;19.50;99.90;;;;;;6064028;23;20431;-88
2022/06/05 02:34:08;;;;;;;11.10;10.40;;;19.40;99.90;;;;;;6064443;23;20431;-87
2022/06/05 02:36:47;;;;;;;10.93;10.13;;;19.50;99.90;;;;;;6064318;23;20514;-87
2022/06/05 02:39:29;;;;;;;10.80;10.10;;;19.40;99.90;;;;;;6039030;23;20474;-87
2022/06/05 02:42:03;;;;;;;11.47;10.63;;;19.40;99.90;;;;;;6065010;23;20503;-87
2022/06/05 02:44:38;;;;;;;11.17;10.37;;;19.40;99.90;;;;;;6065977;23;20919;-87
2022/06/05 02:47:18;;;;;;;11.90;11.10;;;19.40;99.90;;;;;;6064327;23;20475;-87
2022/06/05 02:49:52;;;;;;;11.10;10.30;;;19.40;99.90;;;;;;6063607;23;20521;-87
2022/06/05 02:52:20;;;;;;;11.30;10.50;;;19.30;99.90;;;;;;6064045;23;21065;-87
2022/06/05 02:54:51;;;;;;;11.50;10.77;;;19.30;99.90;;;;;;6064819;23;20950;-87
2022/06/05 02:57:20;;;;;;;11.27;10.47;;;19.30;99.90;;;;;;6064353;23;20916;-87
2022/06/05 02:59:48;;;;;;;11.03;10.30;;;19.20;99.90;;;;;;6064354;23;20561;-87
2022/06/05 03:05:00;;;;;;;11.77;10.77;;;19.10;99.90;;;;;;6064440;23;20420;-87
2022/06/05 03:07:27;;;;;;;11.97;11.17;;;19.00;99.90;;;;;;6064507;23;20794;-87
2022/06/05 03:09:54;;;;;;;12.00;11.17;;;18.90;99.90;;;;;;6064165;23;20478;-87
2022/06/05 03:12:21;;;;;;;12.23;11.43;;;18.80;99.90;;;;;;6064986;23;20502;-87
2022/06/05 03:14:49;;;;;;;12.63;11.80;;;18.60;99.90;;;;;;6070715;23;20457;-87
2022/06/05 03:17:16;;;;;;;12.23;11.43;;;18.60;99.90;;;;;;6066002;23;20919;-87
2022/06/05 03:19:43;;;;;;;12.10;11.30;;;18.50;99.90;;;;;;6063809;23;21029;-87
2022/06/05 03:22:12;;;;;;;14.10;13.10;;;18.50;99.90;;;;;;6064527;23;20862;-87
2022/06/05 03:24:39;;;;;;;12.40;11.53;;;18.40;99.90;;;;;;6064540;23;20502;-88
2022/06/05 03:27:06;;;;;;;12.57;11.63;;;18.40;99.90;;;;;;6064354;23;20517;-88
2022/06/05 03:29:33;;;;;;;13.10;12.20;;;18.30;99.90;;;;;;6064320;23;20545;-87
2022/06/05 03:32:01;;;;;;;11.83;11.10;;;18.30;99.90;;;;;;6064610;23;20471;-88
2022/06/05 03:34:28;;;;;;;11.53;10.73;;;18.40;99.90;;;;;;6065151;23;20522;-87
2022/06/05 03:36:55;;;;;;;12.13;11.33;;;18.30;99.90;;;;;;6064256;23;20531;-87
2022/06/05 03:39:21;;;;;;;12.53;11.70;;;18.40;99.90;;;;;;6063830;23;20471;-87
2022/06/05 03:41:49;;;;;;;12.13;11.43;;;18.30;99.90;;;;;;6064418;23;20526;-87
2022/06/05 03:44:16;;;;;;;11.80;11.10;;;18.30;99.90;;;;;;6064324;23;20435;-87
2022/06/05 03:46:42;;;;;;;12.97;12.07;;;18.40;99.90;;;;;;6063706;23;20962;-87
2022/06/05 03:49:12;;;;;;;11.23;10.53;;;18.40;99.90;;;;;;6064515;23;20546;-87
2022/06/05 03:51:39;;;;;;;11.50;10.80;;;18.40;99.90;;;;;;6064801;23;20439;-88
2022/06/05 03:54:06;;;;;;;12.13;11.33;;;18.50;99.90;;;;;;6064087;23;20502;-87
2022/06/05 03:56:33;;;;;;;12.43;11.63;;;18.60;99.90;;;;;;6064083;23;20495;-87
2022/06/05 03:59:00;;;;;;;11.63;10.90;;;18.60;99.90;;;;;;6063633;23;20839;-87
2022/06/05 04:01:28;;;;;;;11.73;11.03;;;18.60;99.90;;;;;;6064046;23;20461;-87
2022/06/05 04:03:57;;;;;;;11.97;11.17;;;18.60;99.90;;;;;;6064359;23;20582;-87
2022/06/05 04:06:29;;;;;;;12.47;11.67;;;18.60;99.90;;;;;;6064051;23;20467;-87
2022/06/05 04:08:57;;;;;;;13.53;12.57;;;18.40;99.90;;;;;;6064088;23;21024;-88
2022/06/05 04:11:24;;;;;;;14.70;13.60;;;18.40;99.90;;;;;;6064565;23;20447;-88
2022/06/05 04:13:51;;;;;;;13.37;12.57;;;18.30;99.90;;;;;;6063654;23;20451;-89
2022/06/05 04:16:20;;;;;;;14.40;13.40;;;18.30;99.90;;;;;;6064174;23;20561;-88
2022/06/05 04:18:48;;;;;;;14.27;13.17;;;18.20;99.90;;;;;;6064443;23;20571;-88
2022/06/05 04:21:18;;;;;;;14.23;13.20;;;18.30;99.90;;;;;;6064193;23;20442;-89
2022/06/05 04:23:47;;;;;;;14.90;13.90;;;18.30;99.90;;;;;;6064598;23;20492;-88
2022/06/05 04:26:16;;;;;;;15.07;13.80;;;18.30;99.90;;;;;;6063604;23;20522;-89
2022/06/05 04:28:44;;;;;;;15.90;14.63;;;18.40;99.90;;;;;;6063847;23;20463;-89
2022/06/05 04:31:21;;;;;;;14.73;13.73;;;18.40;99.90;;;;;;6063825;23;20990;-89
2022/06/05 04:33:50;;;;;;;17.30;16.10;;;18.60;99.90;;;;;;6064311;23;20469;-88
2022/06/05 04:36:17;;;;;;;17.43;16.13;;;18.50;99.90;;;;;;6064972;23;20435;-87
2022/06/05 04:38:44;;;;;;;15.53;14.43;;;18.50;99.90;;;;;;6063652;23;20468;-88
2022/06/05 04:41:13;;;;;;;17.10;15.93;;;18.50;99.90;;;;;;6064208;23;20440;-89
2022/06/05 04:43:40;;;;;;;18.00;16.70;;;18.50;99.90;;;;;;6063786;23;20431;-88
2022/06/05 04:46:08;;;;;;;16.33;15.23;;;18.60;99.90;;;;;;6068120;23;20435;-88
2022/06/05 04:48:35;;;;;;;17.30;15.93;;;18.60;99.90;;;;;;6067884;23;20632;-89
2022/06/05 04:51:04;;;;;;;15.63;14.63;;;18.60;99.90;;;;;;6064409;23;20466;-88
2022/06/05 04:53:31;;;;;;;15.80;14.80;;;18.60;99.90;;;;;;6064824;23;20855;-89
2022/06/05 04:55:58;;;;;;;17.27;15.97;;;18.60;99.90;;;;;;6064947;23;20462;-88
2022/06/05 04:58:27;;;;;;;16.93;15.73;;;18.70;99.90;;;;;;6064941;23;20861;-88
2022/06/05 05:00:54;;;;;;;16.83;15.70;;;18.60;99.90;;;;;;6065307;23;20530;-88
2022/06/05 05:03:21;;;;;;;17.67;16.17;;;18.60;99.90;;;;;;6064914;23;20443;-88
2022/06/05 05:05:48;;;;;;;16.00;14.90;;;18.50;99.90;;;;;;6064565;23;20447;-87
2022/06/05 05:08:15;;;;;;;17.37;16.20;;;18.50;99.90;;;;;;6065708;23;20469;-88
2022/06/05 05:10:42;;;;;;;18.70;17.40;;;18.40;99.90;;;;;;6065478;23;20453;-88
2022/06/05 05:13:09;;;;;;;17.90;16.60;;;18.40;99.90;;;;;;6065152;23;20463;-88
2022/06/05 05:15:37;;;;;;;19.77;18.37;;;18.30;99.90;;;;;;6064029;23;20594;-88
2022/06/05 05:18:04;;;;;;;19.13;17.67;;;18.20;99.90;;;;;;6064619;23;20465;-88
2022/06/05 05:20:31;;;;;;;19.57;18.27;;;18.10;99.90;;;;;;6064774;23;20512;-88
2022/06/05 05:22:58;;;;;;;18.63;17.33;;;18.00;99.90;;;;;;6065011;23;20497;-89
2022/06/05 05:25:25;;;;;;;19.53;17.97;;;17.90;99.90;;;;;;6064374;23;20919;-88
2022/06/05 05:27:52;;;;;;;18.70;17.30;;;17.80;99.90;;;;;;6065520;23;20440;-88
2022/06/05 05:30:19;;;;;;;19.10;17.50;;;17.80;99.90;;;;;;6064950;23;20532;-88
2022/06/05 05:32:47;;;;;;;20.17;18.70;;;17.80;99.90;;;;;;6064710;23;20434;-88
2022/06/05 05:35:14;;;;;;;19.57;18.17;;;17.70;99.90;;;;;;6064207;23;20978;-88
2022/06/05 05:37:41;;;;;;;20.77;19.10;;;17.70;99.90;;;;;;6064751;23;20807;-87
2022/06/05 05:43:06;;;;;;;21.17;19.57;;;17.80;99.90;;;;;;5977379;24;20466;-87
2022/06/05 05:45:33;;;;;;;20.63;19.23;;;17.90;99.90;;;;;;6043789;23;20435;-87
2022/06/05 05:48:01;;;;;;;21.83;20.13;;;18.00;99.90;;;;;;6064688;23;20439;-88
2022/06/05 05:50:28;;;;;;;21.00;19.33;;;18.00;99.90;;;;;;6066449;23;20518;-88
2022/06/05 05:55:39;;;;;;;22.00;20.40;;;17.80;99.90;;;;;;6064848;23;20497;-87
2022/06/05 05:58:06;;;;;;;20.47;18.97;;;17.70;99.90;;;;;;6064889;23;20518;-88
2022/06/05 06:00:33;;;;;;;22.23;20.67;;;17.60;99.90;;;;;;6064548;23;20558;-87
2022/06/05 06:03:02;;;;;;;21.37;19.70;;;17.60;99.90;;;;;;6069608;23;20435;-88
2022/06/05 06:05:31;;;;;;;22.50;20.90;;;17.50;99.90;;;;;;6064572;23;20435;-87
2022/06/05 06:07:58;;;;;;;27.03;24.80;;;17.30;99.90;;;;;;6064989;23;20466;-87
2022/06/05 06:10:25;;;;;;;29.90;27.67;;;17.30;99.90;;;;;;6063932;23;20524;-85
2022/06/05 06:12:52;;;;;;;31.33;28.73;;;17.10;99.90;;;;;;6065655;23;20436;-85
2022/06/05 06:15:19;;;;;;;31.33;28.47;;;17.10;99.90;;;;;;6067357;23;20806;-85
2022/06/05 06:17:46;;;;;;;33.23;30.20;;;17.10;99.90;;;;;;6064817;23;20508;-86
2022/06/05 06:20:14;;;;;;;32.00;29.47;;;17.00;99.90;;;;;;6063762;23;20481;-85
2022/06/05 06:22:41;;;;;;;29.00;26.80;;;17.00;99.90;;;;;;6064053;23;20448;-85
2022/06/05 06:25:09;;;;;;;34.30;31.50;;;17.00;99.90;;;;;;6063136;23;20444;-85
2022/06/05 06:27:36;;;;;;;34.03;31.43;;;17.00;99.90;;;;;;6063380;23;20843;-85
2022/06/05 06:30:03;;;;;;;34.47;31.67;;;17.00;99.90;;;;;;6063706;23;21159;-85
2022/06/05 06:32:30;;;;;;;33.87;31.00;;;17.00;99.90;;;;;;6063672;23;20946;-85
2022/06/05 06:34:57;;;;;;;36.90;33.77;;;17.00;99.90;;;;;;6064066;23;20975;-85
2022/06/05 06:37:25;;;;;;;34.27;31.37;;;16.90;99.90;;;;;;6063593;23;20525;-86
2022/06/05 06:39:52;;;;;;;35.27;32.37;;;17.00;99.90;;;;;;6063086;23;20502;-85
2022/06/05 06:42:19;;;;;;;35.23;32.40;;;17.00;99.90;;;;;;6063420;23;20437;-85
2022/06/05 06:44:45;;;;;;;32.73;30.23;;;17.00;99.90;;;;;;6063693;23;20533;-85
2022/06/05 06:47:12;;;;;;;31.70;29.10;;;17.00;99.90;;;;;;6063293;23;20515;-84
2022/06/05 06:49:39;;;;;;;27.60;25.60;;;16.90;99.90;;;;;;6063324;23;20489;-85
2022/06/05 06:52:07;;;;;;;26.00;23.90;;;16.90;99.90;;;;;;6063019;23;20432;-85
2022/06/05 06:54:35;;;;;;;23.37;21.57;;;16.90;99.90;;;;;;6062949;23;20525;-84
2022/06/05 06:57:02;;;;;;;24.23;22.43;;;16.90;99.90;;;;;;6063695;23;20449;-86
2022/06/05 06:59:29;;;;;;;21.50;20.00;;;16.90;99.90;;;;;;6064084;23;20818;-85
2022/06/05 07:01:56;;;;;;;21.47;19.97;;;16.90;99.90;;;;;;6063837;23;20847;-85
2022/06/05 07:04:24;;;;;;;20.43;19.00;;;16.90;99.90;;;;;;6064213;23;20501;-84
2022/06/05 07:06:51;;;;;;;22.17;20.40;;;16.90;99.90;;;;;;6062329;23;20459;-85
2022/06/05 07:09:18;;;;;;;21.03;19.57;;;16.90;99.90;;;;;;6064904;23;20472;-85
2022/06/05 07:11:47;;;;;;;23.20;21.40;;;16.90;99.90;;;;;;6065216;23;20453;-85
2022/06/05 07:14:16;;;;;;;22.67;20.93;;;17.00;99.90;;;;;;6065641;23;20441;-85
2022/06/05 07:16:43;;;;;;;21.77;20.07;;;17.10;99.90;;;;;;6066116;23;20474;-86
2022/06/05 07:19:10;;;;;;;18.43;16.97;;;17.10;99.90;;;;;;6069749;23;20473;-85
2022/06/05 07:21:37;;;;;;;15.63;14.53;;;17.10;99.90;;;;;;6071460;23;20440;-85
2022/06/05 07:24:05;;;;;;;15.10;13.73;;;17.10;99.90;;;;;;6070278;23;20455;-85
2022/06/05 07:26:33;;;;;;;15.90;14.70;;;17.00;99.90;;;;;;6066530;23;20440;-85
2022/06/05 07:29:02;;;;;;;16.30;15.10;;;16.90;99.90;;;;;;6063281;23;20508;-86
2022/06/05 07:31:31;;;;;;;16.17;14.97;;;16.90;99.90;;;;;;6064031;23;20497;-85
2022/06/05 07:34:00;;;;;;;17.10;15.70;;;17.00;99.90;;;;;;6063903;23;20528;-85
2022/06/05 07:36:28;;;;;;;18.87;17.33;;;17.00;99.90;;;;;;6064634;23;20823;-85
2022/06/05 07:38:57;;;;;;;14.40;13.40;;;17.00;99.90;;;;;;6065250;23;20460;-85
2022/06/05 07:41:27;;;;;;;14.03;13.03;;;17.00;99.90;;;;;;6065658;23;20477;-85
2022/06/05 07:43:55;;;;;;;15.83;14.73;;;17.00;99.90;;;;;;6064725;23;20476;-85
2022/06/05 07:46:24;;;;;;;17.23;15.93;;;17.10;99.90;;;;;;6064774;23;20432;-85
2022/06/05 07:48:51;;;;;;;13.13;12.13;;;17.20;99.90;;;;;;6066202;23;20456;-86
2022/06/05 07:54:31;;;;;;;15.00;14.00;;;17.10;99.90;;;;;;5975778;23;20439;-85
2022/06/05 07:57:01;;;;;;;16.10;14.90;;;17.00;99.90;;;;;;6051592;23;20982;-86
2022/06/05 07:59:30;;;;;;;15.30;14.30;;;17.00;99.90;;;;;;6063692;23;20788;-86
2022/06/05 08:02:00;;;;;;;13.13;12.23;;;17.00;99.90;;;;;;6064606;23;20449;-85
2022/06/05 08:04:28;;;;;;;9.60;8.90;;;17.10;99.90;;;;;;6064473;23;20585;-86
2022/06/05 08:06:57;;;;;;;10.67;9.80;;;17.20;99.90;;;;;;6063931;23;20434;-86
2022/06/05 08:09:25;;;;;;;9.90;9.20;;;17.20;99.90;;;;;;6063971;23;20466;-86
2022/06/05 08:11:52;;;;;;;7.37;6.77;;;17.20;99.90;;;;;;6066460;23;20454;-86
2022/06/05 08:14:19;;;;;;;8.47;7.97;;;17.20;99.90;;;;;;6070899;23;20434;-86
2022/06/05 08:16:47;;;;;;;7.07;6.57;;;17.30;99.90;;;;;;6070400;23;20444;-86
2022/06/05 08:19:17;;;;;;;7.00;6.40;;;17.40;99.90;;;;;;6068853;23;20467;-86
2022/06/05 08:21:46;;;;;;;7.83;7.23;;;17.50;99.90;;;;;;6068642;23;20447;-86
2022/06/05 08:24:14;;;;;;;7.37;6.80;;;17.60;99.90;;;;;;6069655;23;20522;-86
2022/06/05 08:26:41;;;;;;;7.60;7.00;;;17.70;99.90;;;;;;6071679;23;20515;-86
2022/06/05 08:29:09;;;;;;;8.00;7.50;;;17.90;99.90;;;;;;6071782;23;20517;-86
2022/06/05 08:31:37;;;;;;;8.10;7.50;;;18.00;99.90;;;;;;6071216;23;20438;-87
2022/06/05 08:34:04;;;;;;;7.43;6.93;;;18.10;99.90;;;;;;6071076;23;20443;-86
2022/06/05 08:36:34;;;;;;;7.30;6.70;;;18.20;99.90;;;;;;6064732;23;20919;-86
2022/06/05 08:42:01;;;;;;;5.60;5.20;;;18.60;99.90;;;;;;6063962;23;20430;-87
2022/06/05 08:44:37;;;;;;;4.97;4.60;;;18.90;99.90;;;;;;6064734;23;20973;-87
2022/06/05 08:47:12;;;;;;;4.63;4.23;;;19.10;99.90;;;;;;6064862;23;20426;-87
2022/06/05 08:49:45;;;;;;;4.30;3.90;;;19.40;99.90;;;;;;6064954;23;20521;-88
2022/06/05 08:52:23;;;;;;;4.03;3.63;;;19.50;99.90;;;;;;6064901;23;20779;-88
2022/06/05 08:54:59;;;;;;;4.37;4.07;;;19.70;99.90;;;;;;6064149;23;20450;-88
2022/06/05 08:57:31;;;;;;;4.37;3.27;;;19.80;99.90;;;;;;6063563;23;20934;-88
2022/06/05 09:00:05;;;;;;;3.73;3.37;;;20.00;99.90;;;;;;6063344;23;20462;-89
2022/06/05 09:02:42;;;;;;;3.20;3.00;;;20.10;99.90;;;;;;6063654;23;20431;-88
2022/06/05 09:05:18;;;;;;;3.47;3.17;;;20.20;99.90;;;;;;6063085;23;20454;-88
2022/06/05 09:07:49;;;;;;;2.80;2.50;;;20.20;99.90;;;;;;6063121;23;20815;-90
2022/06/05 09:10:22;;;;;;;2.23;2.03;;;20.20;99.90;;;;;;6063658;23;20443;-89
2022/06/05 09:12:52;;;;;;;2.50;2.30;;;20.20;99.90;;;;;;6063962;23;20462;-90
2022/06/05 09:15:26;;;;;;;5.10;2.10;;;20.40;99.90;;;;;;6062960;23;20456;-90
2022/06/05 09:17:57;;;;;;;2.30;2.10;;;20.50;99.90;;;;;;6063458;23;20839;-89
2022/06/05 09:20:32;;;;;;;3.57;2.63;;;20.50;99.90;;;;;;6063456;23;20514;-90
2022/06/05 09:23:08;;;;;;;2.77;1.70;;;20.50;99.90;;;;;;6074907;23;20455;-90
2022/06/05 09:25:51;;;;;;;2.33;2.00;;;20.60;99.90;;;;;;6063931;23;20424;-90
2022/06/05 09:28:41;;;;;;;2.90;2.10;;;20.60;99.90;;;;;;6062873;23;20526;-91
2022/06/05 09:31:35;;;;;;;2.27;2.07;;;20.60;99.90;;;;;;6063186;23;20439;-90
2022/06/05 09:34:10;;;;;;;2.37;2.17;;;20.60;99.90;;;;;;6063397;23;20439;-90
2022/06/05 09:36:42;;;;;;;2.17;1.80;;;20.80;99.90;;;;;;6063006;23;20470;-90
2022/06/05 09:39:21;;;;;;;3.10;1.90;;;21.10;99.90;;;;;;6064123;23;20978;-91
2022/06/05 09:41:55;;;;;;;2.20;2.00;;;21.30;99.90;;;;;;6064794;23;20478;-92
2022/06/05 09:44:34;;;;;;;1.90;1.80;;;21.20;99.90;;;;;;6064851;23;20723;-91
2022/06/05 09:47:04;;;;;;;1.83;1.60;;;21.30;99.90;;;;;;6063868;23;20447;-92
2022/06/05 09:49:37;;;;;;;2.93;1.77;;;22.00;99.90;;;;;;6064840;23;21040;-92
2022/06/05 09:52:12;;;;;;;1.90;1.70;;;22.80;99.90;;;;;;6065671;23;20439;-92
2022/06/05 09:54:45;;;;;;;1.50;1.40;;;23.70;99.90;;;;;;6065244;23;20485;-92
2022/06/05 10:00:32;;;;;;;3.37;2.00;;;23.80;99.90;;;;;;6065385;23;20471;-92
2022/06/05 10:03:04;;;;;;;3.53;1.87;;;23.40;99.90;;;;;;6065067;23;20453;-92
2022/06/05 10:05:34;;;;;;;2.10;1.83;;;23.10;99.90;;;;;;6065056;23;20434;-92
2022/06/05 10:08:14;;;;;;;2.17;1.60;;;23.00;99.90;;;;;;6065319;23;20456;-92
2022/06/05 10:10:45;;;;;;;3.20;1.60;;;22.80;99.90;;;;;;6065174;23;20435;-93
2022/06/05 10:13:20;;;;;;;2.73;1.50;;;22.70;99.90;;;;;;6065408;23;20427;-93
2022/06/05 10:15:53;;;;;;;2.90;1.80;;;22.90;99.90;;;;;;6064707;23;20506;-92
2022/06/05 10:18:25;;;;;;;1.40;1.30;;;23.40;99.90;;;;;;6064880;23;20493;-92
2022/06/05 10:20:58;;;;;;;2.43;1.53;;;23.50;99.90;;;;;;6064676;23;20474;-92
2022/06/05 10:23:49;;;;;;;2.53;1.40;;;23.30;99.90;;;;;;6065205;23;20439;-91
2022/06/05 10:26:26;;;;;;;2.33;1.60;;;23.30;99.90;;;;;;6064289;23;20820;-93
2022/06/05 10:29:08;;;;;;;1.87;1.50;;;23.50;99.90;;;;;;6064695;23;21036;-93
2022/06/05 10:31:37;;;;;;;2.10;1.60;;;24.50;99.90;;;;;;6067515;23;20466;-94
2022/06/05 10:34:13;;;;;;;1.90;1.43;;;25.10;99.90;;;;;;6066827;23;20470;-92
2022/06/05 10:36:54;;;;;;;2.20;1.60;;;25.40;99.90;;;;;;6067719;23;20431;-93
2022/06/05 10:39:27;;;;;;;2.17;1.90;;;25.10;99.90;;;;;;6066290;23;20455;-92
2022/06/05 10:42:13;;;;;;;3.30;2.00;;;24.70;99.90;;;;;;6068004;23;20447;-93
2022/06/05 10:44:59;;;;;;;2.30;1.57;;;24.50;99.90;;;;;;6068726;23;20450;-93
2022/06/05 10:47:35;;;;;;;2.20;2.00;;;23.90;99.90;;;;;;6081324;23;20427;-92
2022/06/05 10:50:07;;;;;;;2.40;1.87;;;23.40;99.90;;;;;;6093152;23;20415;-92
2022/06/05 10:52:40;;;;;;;4.03;2.97;;;23.10;99.90;;;;;;6071337;23;20435;-93
2022/06/05 10:55:34;;;;;;;3.63;2.17;;;22.80;99.90;;;;;;6074812;23;20490;-92
2022/06/05 10:58:15;;;;;;;2.47;2.27;;;22.60;99.90;;;;;;6065372;23;20855;-93
2022/06/05 11:01:02;;;;;;;2.60;2.40;;;22.50;99.90;;;;;;6039715;23;20455;-92
2022/06/05 11:03:40;;;;;;;3.27;2.67;;;22.40;99.90;;;;;;6065451;23;20459;-93
2022/06/05 11:06:27;;;;;;;4.20;2.73;;;22.30;99.90;;;;;;6065241;23;20427;-93
2022/06/05 11:09:12;;;;;;;2.77;2.50;;;22.20;99.90;;;;;;6065065;23;20522;-92
2022/06/05 11:14:40;;;;;;;3.60;3.30;;;22.00;99.90;;;;;;6037351;23;20450;-78
2022/06/05 11:17:23;;;;;;;3.57;3.37;;;22.00;99.90;;;;;;6063014;23;20471;-78
2022/06/05 11:20:01;;;;;;;5.87;3.70;;;22.00;99.90;;;;;;6034560;23;20460;-78
2022/06/05 11:22:30;;;;;;;3.43;3.13;;;21.90;99.90;;;;;;6034908;23;20443;-78
2022/06/05 11:25:10;;;;;;;4.40;3.80;;;21.80;99.90;;;;;;6034248;23;20436;-78
2022/06/05 11:27:47;;;;;;;3.77;3.47;;;21.80;99.90;;;;;;6034622;23;20437;-78
2022/06/05 11:30:20;;;;;;;4.20;3.90;;;21.90;99.90;;;;;;6034726;23;20424;-78
2022/06/05 11:32:54;;;;;;;3.87;3.57;;;21.80;99.90;;;;;;6034473;23;20521;-79
2022/06/05 11:35:33;;;;;;;3.87;3.53;;;21.80;99.90;;;;;;6033647;23;20432;-79
2022/06/05 11:38:16;;;;;;;3.90;3.60;;;21.70;99.90;;;;;;6034503;23;20467;-78
2022/06/05 11:40:47;;;;;;;4.03;3.73;;;21.70;99.90;;;;;;6034677;23;20471;-78
2022/06/05 11:43:27;;;;;;;4.27;3.87;;;21.50;99.90;;;;;;6034292;23;20851;-78
2022/06/05 11:46:04;;;;;;;5.57;3.90;;;21.20;99.90;;;;;;6033931;23;20432;-78
2022/06/05 11:48:38;;;;;;;6.63;4.23;;;21.10;99.90;;;;;;6034534;23;20495;-78
2022/06/05 11:51:11;;;;;;;4.30;3.90;;;21.10;99.90;;;;;;6034516;23;20421;-78
2022/06/05 11:53:47;;;;;;;4.00;3.70;;;21.20;99.90;;;;;;6034311;23;20475;-78
2022/06/05 11:56:27;;;;;;;3.50;3.20;;;21.50;99.90;;;;;;6033987;23;20511;-78
2022/06/05 11:59:00;;;;;;;3.57;3.20;;;21.90;99.90;;;;;;6034140;23;20468;-78
2022/06/05 12:01:35;;;;;;;3.23;3.03;;;22.20;99.90;;;;;;6033461;23;20478;-78
2022/06/05 12:04:11;;;;;;;3.33;3.03;;;22.50;99.90;;;;;;6033968;23;20522;-78
2022/06/05 12:06:42;;;;;;;3.20;2.90;;;23.30;99.90;;;;;;6033126;23;20444;-78
2022/06/05 12:09:15;;;;;;;3.40;3.10;;;23.70;99.90;;;;;;6033983;23;20470;-78
2022/06/05 12:11:50;;;;;;;3.23;2.93;;;23.80;99.90;;;;;;6034100;23;20452;-78
2022/06/05 12:14:21;;;;;;;3.93;3.57;;;24.00;99.90;;;;;;6034197;23;20424;-78
2022/06/05 12:16:56;;;;;;;3.17;2.87;;;24.00;99.90;;;;;;6033517;23;20440;-78
2022/06/05 12:19:37;;;;;;;3.53;2.67;;;24.10;99.90;;;;;;6033931;23;20457;-78
2022/06/05 12:22:11;;;;;;;3.50;3.00;;;24.20;99.90;;;;;;6034129;23;20475;-78
2022/06/05 12:24:45;;;;;;;3.70;3.00;;;24.50;99.90;;;;;;6034012;23;20958;-78
2022/06/05 12:27:16;;;;;;;4.00;2.80;;;24.70;99.90;;;;;;6033549;23;20432;-79
2022/06/05 12:29:47;;;;;;;4.67;2.90;;;25.00;99.90;;;;;;6033712;23;20436;-78
2022/06/05 12:32:24;;;;;;;3.40;2.40;;;25.10;99.90;;;;;;6033906;23;20428;-79
2022/06/05 12:34:58;;;;;;;5.33;2.50;;;25.00;99.90;;;;;;6034297;23;20428;-79
2022/06/05 12:37:29;;;;;;;2.40;2.20;;;24.80;99.90;;;;;;6033843;23;20467;-79
2022/06/05 12:39:59;;;;;;;2.80;2.50;;;24.80;99.90;;;;;;6033788;23;20443;-78
2022/06/05 12:42:35;;;;;;;2.43;2.23;;;24.70;99.90;;;;;;6033607;23;20474;-78
2022/06/05 12:45:06;;;;;;;2.70;2.50;;;24.60;99.90;;;;;;6033513;23;20442;-78
2022/06/05 12:48:02;;;;;;;3.33;2.53;;;24.40;99.90;;;;;;6033988;23;20464;-78
2022/06/05 12:50:39;;;;;;;2.60;2.10;;;24.40;99.90;;;;;;6029546;23;20444;-78
2022/06/05 12:53:18;;;;;;;3.50;2.23;;;24.60;99.90;;;;;;6034065;23;20436;-78
2022/06/05 12:55:48;;;;;;;3.07;2.17;;;25.30;99.90;;;;;;6033560;23;20450;-79
2022/06/05 12:58:21;;;;;;;2.50;2.30;;;26.30;99.90;;;;;;6033985;23;20468;-79
2022/06/05 13:00:53;;;;;;;2.40;2.20;;;27.30;99.90;;;;;;6033322;23;20448;-79
2022/06/05 13:03:31;;;;;;;3.27;2.20;;;28.00;99.90;;;;;;6033521;23;20463;-79
2022/06/05 13:06:04;;;;;;;4.00;2.47;;;29.40;99.90;;;;;;6033551;23;20436;-79
2022/06/05 13:08:39;;;;;;;3.97;2.17;;;30.30;99.90;;;;;;6033593;23;21098;-79
2022/06/05 13:11:12;;;;;;;3.57;2.07;;;30.00;99.90;;;;;;6033474;23;20773;-79
2022/06/05 13:13:49;;;;;;;6.13;2.10;;;30.40;99.90;;;;;;6035203;23;21128;-79
2022/06/05 13:16:24;;;;;;;5.00;2.37;;;31.10;99.90;;;;;;6034595;23;20436;-79
2022/06/05 13:19:04;;;;;;;3.47;2.30;;;31.80;99.90;;;;;;6034831;23;20485;-79
2022/06/05 13:21:40;;;;;;;3.97;2.00;;;32.80;99.90;;;;;;6034788;23;20467;-79